createdAt,value
2018-09-28T00:02:17.663Z,100.00
2018-09-28T00:04:45.779Z,100.00
2018-09-28T00:07:13.886Z,100.00
2018-09-28T00:09:41.977Z,100.00
2018-09-28T00:12:10.084Z,100.00
2018-09-28T00:14:38.200Z,100.00
2018-09-28T00:17:06.510Z,100.00
2018-09-28T00:19:34.600Z,100.00
2018-09-28T00:22:02.691Z,100.00
2018-09-28T00:24:30.783Z,100.00
2018-09-28T00:26:58.889Z,100.00
2018-09-28T00:29:27.004Z,100.00
2018-09-28T00:31:55.128Z,100.00
2018-09-28T00:34:23.233Z,100.00
2018-09-28T00:36:51.380Z,100.00
2018-09-28T00:39:19.476Z,100.00
2018-09-28T00:41:47.605Z,100.00
2018-09-28T00:44:15.724Z,100.00
2018-09-28T00:46:43.804Z,100.00
2018-09-28T00:49:11.946Z,100.00
2018-09-28T00:51:40.360Z,99.35
2018-09-28T00:54:08.473Z,100.00
2018-09-28T00:56:36.573Z,100.00
2018-09-28T00:59:04.673Z,100.00
2018-09-28T01:01:32.768Z,100.00
2018-09-28T01:04:00.856Z,99.72
2018-09-28T01:06:28.964Z,99.12
2018-09-28T01:08:57.069Z,98.83
2018-09-28T01:11:25.166Z,97.27
2018-09-28T01:13:53.264Z,97.25
2018-09-28T01:16:21.368Z,97.23
2018-09-28T01:18:49.468Z,96.28
2018-09-28T01:21:17.548Z,96.83
2018-09-28T01:23:45.658Z,95.57
2018-09-28T01:26:13.733Z,95.58
2018-09-28T01:28:41.876Z,95.55
2018-09-28T01:31:09.964Z,96.16
2018-09-28T01:33:38.068Z,95.21
2018-09-28T01:36:06.207Z,95.07
2018-09-28T01:38:34.280Z,95.07
2018-09-28T01:41:02.394Z,94.76
2018-09-28T01:43:30.528Z,94.09
2018-09-28T01:45:58.633Z,92.62
2018-09-28T01:48:26.768Z,92.81
2018-09-28T01:50:54.848Z,92.06
2018-09-28T01:53:22.938Z,91.36
2018-09-28T01:55:51.066Z,91.40
2018-09-28T01:58:19.146Z,90.82
2018-09-28T02:00:47.245Z,88.96
2018-09-28T02:03:15.341Z,90.36
2018-09-28T02:05:43.438Z,90.64
2018-09-28T02:08:11.544Z,89.26
2018-09-28T02:10:40.447Z,89.35
2018-09-28T02:13:08.592Z,88.70
2018-09-28T02:15:36.676Z,89.74
2018-09-28T02:18:04.762Z,89.78
2018-09-28T02:20:32.884Z,90.10
2018-09-28T02:23:01.000Z,90.44
2018-09-28T02:25:29.089Z,90.32
2018-09-28T02:27:57.194Z,90.64
2018-09-28T02:30:25.309Z,91.43
2018-09-28T02:32:53.437Z,89.78
2018-09-28T02:35:21.544Z,89.58
2018-09-28T02:37:49.872Z,89.26
2018-09-28T02:40:17.962Z,89.15
2018-09-28T02:42:46.056Z,90.65
2018-09-28T02:45:14.140Z,89.56
2018-09-28T02:47:42.481Z,89.74
2018-09-28T02:50:10.658Z,90.16
2018-09-28T02:52:38.765Z,91.00
2018-09-28T02:55:06.860Z,89.82
2018-09-28T02:57:34.970Z,89.88
2018-09-28T03:00:03.055Z,89.86
2018-09-28T03:02:31.156Z,86.26
2018-09-28T03:04:59.245Z,86.53
2018-09-28T03:07:27.329Z,87.21
2018-09-28T03:09:55.417Z,86.23
2018-09-28T03:12:23.504Z,85.08
2018-09-28T03:14:51.613Z,85.87
2018-09-28T03:17:19.692Z,85.44
2018-09-28T03:19:47.785Z,84.84
2018-09-28T03:22:15.863Z,85.32
2018-09-28T03:24:43.975Z,83.50
2018-09-28T03:27:12.069Z,84.49
2018-09-28T03:29:40.202Z,84.00
2018-09-28T03:32:08.287Z,83.98
2018-09-28T03:34:36.381Z,85.49
2018-09-28T03:37:04.580Z,85.33
2018-09-28T03:39:32.692Z,85.01
2018-09-28T03:42:00.770Z,84.48
2018-09-28T03:44:28.877Z,85.74
2018-09-28T03:46:56.957Z,84.40
2018-09-28T03:49:25.062Z,85.33
2018-09-28T03:51:53.147Z,83.26
2018-09-28T03:54:21.244Z,83.65
2018-09-28T03:56:49.345Z,83.08
2018-09-28T03:59:17.420Z,84.27
2018-09-28T04:01:45.539Z,83.30
2018-09-28T04:04:13.599Z,82.70
2018-09-28T04:06:41.710Z,81.00
2018-09-28T04:09:11.083Z,81.79
2018-09-28T04:11:39.172Z,80.81
2018-09-28T04:14:07.440Z,80.40
2018-09-28T04:16:35.637Z,81.24
2018-09-28T04:19:03.756Z,80.16
2018-09-28T04:21:31.896Z,79.87
2018-09-28T04:24:00.149Z,80.93
2018-09-28T04:26:28.256Z,80.95
2018-09-28T04:28:56.352Z,79.92
2018-09-28T04:31:24.463Z,81.04
2018-09-28T04:33:52.560Z,80.17
2018-09-28T04:36:20.656Z,80.97
2018-09-28T04:38:48.768Z,80.23
2018-09-28T04:41:16.834Z,80.84
2018-09-28T04:43:44.928Z,80.14
2018-09-28T04:46:13.045Z,79.72
2018-09-28T04:48:41.134Z,79.90
2018-09-28T04:51:09.223Z,81.24
2018-09-28T04:53:37.479Z,80.71
2018-09-28T04:56:05.564Z,80.65
2018-09-28T04:58:33.674Z,80.44
2018-09-28T05:01:01.792Z,80.42
2018-09-28T05:03:29.898Z,81.00
2018-09-28T05:05:57.978Z,81.73
2018-09-28T05:08:26.061Z,81.23
2018-09-28T05:10:54.173Z,81.67
2018-09-28T05:13:22.266Z,81.92
2018-09-28T05:15:50.344Z,83.17
2018-09-28T05:18:18.464Z,82.88
2018-09-28T05:20:46.574Z,83.41
2018-09-28T05:23:14.653Z,82.54
2018-09-28T05:25:42.776Z,82.83
2018-09-28T05:28:10.888Z,83.69
2018-09-28T05:30:44.972Z,83.89
2018-09-28T05:33:07.145Z,83.87
2018-09-28T05:35:35.160Z,83.96
2018-09-28T05:38:03.241Z,84.69
2018-09-28T05:40:31.346Z,85.00
2018-09-28T05:42:59.441Z,84.90
2018-09-28T05:45:27.561Z,84.83
2018-09-28T05:47:55.693Z,84.86
2018-09-28T05:50:23.810Z,84.32
2018-09-28T05:52:51.921Z,84.87
2018-09-28T05:55:20.031Z,85.12
2018-09-28T05:57:51.589Z,84.50
2018-09-28T06:00:25.023Z,84.85
2018-09-28T06:02:58.511Z,84.59
2018-09-28T06:05:33.201Z,84.23
2018-09-28T06:08:02.312Z,84.30
2018-09-28T06:10:30.420Z,84.50
2018-09-28T06:12:58.540Z,84.95
2018-09-28T06:15:26.641Z,84.57
2018-09-28T06:17:54.796Z,83.83
2018-09-28T06:20:22.828Z,84.40
2018-09-28T06:22:50.909Z,84.38
2018-09-28T06:25:19.000Z,84.84
2018-09-28T06:27:47.102Z,83.83
2018-09-28T06:30:15.199Z,84.45
2018-09-28T06:32:43.264Z,82.91
2018-09-28T06:35:11.357Z,84.47
2018-09-28T06:37:39.484Z,83.72
2018-09-28T06:40:07.713Z,82.81
2018-09-28T06:42:35.892Z,82.66
2018-09-28T06:45:03.998Z,83.26
2018-09-28T06:47:32.080Z,82.07
2018-09-28T06:50:00.212Z,81.83
2018-09-28T06:52:28.634Z,81.73
2018-09-28T06:54:56.729Z,81.10
2018-09-28T06:57:24.844Z,81.03
2018-09-28T06:59:52.999Z,80.22
2018-09-28T07:02:21.127Z,78.98
2018-09-28T07:04:49.227Z,80.31
2018-09-28T07:07:17.360Z,79.55
2018-09-28T07:09:45.437Z,78.29
2018-09-28T07:12:13.579Z,76.70
2018-09-28T07:14:41.588Z,78.84
2018-09-28T07:17:09.688Z,79.10
2018-09-28T07:19:37.821Z,78.23
2018-09-28T07:22:06.033Z,77.79
2018-09-28T07:24:34.174Z,76.92
2018-09-28T07:27:02.268Z,75.95
2018-09-28T07:29:30.364Z,76.56
2018-09-28T07:31:58.481Z,76.17
2018-09-28T07:34:26.582Z,75.16
2018-09-28T07:36:54.744Z,75.42
2018-09-28T07:39:22.805Z,73.57
2018-09-28T07:41:50.949Z,72.91
2018-09-28T07:44:18.956Z,72.84
2018-09-28T07:46:47.063Z,74.87
2018-09-28T07:49:15.200Z,72.36
2018-09-28T07:51:43.274Z,74.46
2018-09-28T07:54:11.410Z,72.68
2018-09-28T07:56:39.505Z,72.71
2018-09-28T07:59:07.612Z,71.20
2018-09-28T08:01:35.740Z,70.62
2018-09-28T08:04:03.868Z,70.83
2018-09-28T08:06:31.950Z,69.46
2018-09-28T08:09:00.053Z,71.09
2018-09-28T08:11:28.151Z,69.75
2018-09-28T08:13:56.274Z,70.70
2018-09-28T08:16:24.341Z,70.73
2018-09-28T08:18:52.404Z,71.62
2018-09-28T08:21:20.489Z,70.25
2018-09-28T08:23:48.602Z,68.44
2018-09-28T08:26:16.691Z,68.99
2018-09-28T08:28:44.776Z,67.06
2018-09-28T08:31:12.880Z,69.16
2018-09-28T08:33:41.617Z,68.34
2018-09-28T08:36:09.774Z,66.75
2018-09-28T08:38:37.847Z,67.19
2018-09-28T08:41:05.985Z,66.95
2018-09-28T08:43:34.130Z,66.77
2018-09-28T08:46:02.216Z,66.88
2018-09-28T08:48:30.377Z,66.61
2018-09-28T08:50:58.448Z,65.77
2018-09-28T08:53:26.534Z,66.58
2018-09-28T08:55:54.682Z,63.98
2018-09-28T08:58:22.721Z,65.24
2018-09-28T09:00:50.840Z,64.63
2018-09-28T09:03:18.957Z,62.99
2018-09-28T09:05:47.056Z,65.13
2018-09-28T09:08:15.145Z,64.70
2018-09-28T09:10:43.250Z,64.72
2018-09-28T09:13:11.352Z,62.97
2018-09-28T09:15:39.443Z,62.66
2018-09-28T09:18:07.591Z,62.85
2018-09-28T09:20:35.661Z,62.83
2018-09-28T09:23:03.748Z,63.47
2018-09-28T09:25:31.854Z,64.69
2018-09-28T09:27:59.946Z,62.92
2018-09-28T09:30:28.026Z,62.95
2018-09-28T09:32:56.104Z,62.96
2018-09-28T09:35:24.253Z,63.42
2018-09-28T09:37:52.352Z,63.13
2018-09-28T09:40:20.557Z,62.18
2018-09-28T09:42:48.678Z,62.65
2018-09-28T09:45:16.769Z,59.70
2018-09-28T09:47:44.879Z,60.91
2018-09-28T09:50:13.130Z,61.17
2018-09-28T09:52:41.228Z,62.50
2018-09-28T09:55:09.390Z,62.27
2018-09-28T09:57:37.609Z,63.44
2018-09-28T10:00:05.949Z,62.75
2018-09-28T10:02:39.421Z,63.13
2018-09-28T10:05:07.480Z,62.47
2018-09-28T10:07:35.585Z,61.19
2018-09-28T10:10:03.681Z,61.23
2018-09-28T10:12:31.876Z,59.76
2018-09-28T10:14:59.908Z,60.27
2018-09-28T10:17:28.011Z,61.03
2018-09-28T10:19:56.112Z,61.57
2018-09-28T10:22:24.168Z,60.91
2018-09-28T10:24:52.268Z,60.88
2018-09-28T10:27:20.399Z,60.33
2018-09-28T10:29:48.448Z,61.77
2018-09-28T10:34:50.983Z,63.10
2018-09-28T10:37:18.981Z,62.99
2018-09-28T10:39:47.177Z,62.79
2018-09-28T10:42:15.197Z,62.29
2018-09-28T10:44:43.327Z,61.98
2018-09-28T10:47:11.372Z,62.77
2018-09-28T10:49:39.480Z,62.58
2018-09-28T10:52:08.032Z,62.85
2018-09-28T10:54:36.236Z,62.07
2018-09-28T10:57:04.397Z,62.49
2018-09-28T10:59:32.513Z,61.23
2018-09-28T11:02:00.592Z,58.91
2018-09-28T11:04:28.709Z,59.96
2018-09-28T11:06:56.820Z,59.39
2018-09-28T11:09:24.962Z,60.98
2018-09-28T11:11:53.068Z,61.48
2018-09-28T11:14:21.177Z,62.78
2018-09-28T11:16:49.293Z,62.94
2018-09-28T11:19:17.381Z,62.19
2018-09-28T11:21:45.560Z,62.50
2018-09-28T11:24:13.600Z,63.01
2018-09-28T11:26:41.713Z,61.65
2018-09-28T11:29:09.824Z,61.83
2018-09-28T11:31:37.949Z,60.30
2018-09-28T11:34:06.033Z,59.69
2018-09-28T11:36:34.153Z,60.93
2018-09-28T11:39:02.354Z,59.74
2018-09-28T11:41:30.480Z,58.12
2018-09-28T11:43:58.592Z,56.56
2018-09-28T11:46:26.720Z,61.70
2018-09-28T11:48:54.852Z,58.67
2018-09-28T11:51:23.033Z,56.64
2018-09-28T11:53:51.079Z,57.76
2018-09-28T11:56:19.192Z,58.22
2018-09-28T11:58:47.313Z,57.76
2018-09-28T12:01:15.393Z,56.64
2018-09-28T12:03:43.797Z,57.12
2018-09-28T12:06:11.898Z,57.57
2018-09-28T12:08:39.987Z,57.55
2018-09-28T12:11:08.174Z,55.89
2018-09-28T12:13:36.229Z,56.37
2018-09-28T12:16:04.308Z,57.51
2018-09-28T12:18:32.509Z,58.17
2018-09-28T12:21:00.736Z,59.39
2018-09-28T12:23:28.893Z,60.33
2018-09-28T12:25:57.109Z,59.37
2018-09-28T12:28:25.231Z,59.36
2018-09-28T12:30:53.330Z,57.57
2018-09-28T12:33:21.505Z,56.12
2018-09-28T12:35:49.573Z,56.50
2018-09-28T12:38:17.651Z,55.55
2018-09-28T12:40:45.776Z,53.14
2018-09-28T12:43:13.884Z,54.66
2018-09-28T12:45:42.068Z,54.74
2018-09-28T12:48:10.174Z,55.19
2018-09-28T12:50:38.257Z,54.47
2018-09-28T12:53:06.413Z,54.25
2018-09-28T12:55:34.505Z,54.87
2018-09-28T12:58:02.612Z,54.84
2018-09-28T13:00:30.787Z,54.04
2018-09-28T13:02:58.842Z,55.35
2018-09-28T13:05:26.981Z,54.69
2018-09-28T13:07:55.053Z,55.46
2018-09-28T13:10:23.200Z,56.86
2018-09-28T13:12:51.392Z,57.39
2018-09-28T13:15:19.429Z,57.81
2018-09-28T13:17:47.524Z,57.12
2018-09-28T13:20:15.716Z,57.96
2018-09-28T13:22:43.766Z,59.24
2018-09-28T13:25:11.865Z,59.51
2018-09-28T13:27:39.971Z,59.83
2018-09-28T13:30:08.080Z,60.66
2018-09-28T13:32:36.184Z,60.75
2018-09-28T13:35:04.312Z,60.70
2018-09-28T13:37:32.415Z,61.95
2018-09-28T13:40:00.515Z,64.01
2018-09-28T13:42:28.615Z,63.54
2018-09-28T13:44:56.741Z,63.05
2018-09-28T13:47:24.836Z,63.33
2018-09-28T13:49:53.052Z,63.92
2018-09-28T13:52:21.184Z,63.18
2018-09-28T13:54:49.389Z,62.70
2018-09-28T13:57:17.324Z,66.27
2018-09-28T13:59:45.418Z,69.40
2018-09-28T14:02:13.534Z,70.05
2018-09-28T14:04:41.807Z,68.98
2018-09-28T14:07:10.124Z,68.44
2018-09-28T14:09:38.068Z,68.40
2018-09-28T14:12:06.193Z,68.08
2018-09-28T14:14:34.318Z,69.18
2018-09-28T14:17:02.385Z,66.92
2018-09-28T14:19:30.519Z,66.13
2018-09-28T14:21:58.649Z,64.30
2018-09-28T14:24:26.750Z,63.33
2018-09-28T14:26:54.846Z,62.40
2018-09-28T14:29:22.949Z,61.77
2018-09-28T14:31:51.055Z,61.65
2018-09-28T14:34:19.208Z,59.74
2018-09-28T14:36:47.383Z,59.40
2018-09-28T14:39:15.451Z,61.26
2018-09-28T14:41:43.603Z,60.07
2018-09-28T14:44:11.725Z,60.51
2018-09-28T14:46:39.844Z,61.28
2018-09-28T14:49:08.027Z,62.47
2018-09-28T14:51:36.073Z,61.48
2018-09-28T14:54:04.258Z,62.67
2018-09-28T14:56:32.344Z,63.89
2018-09-28T14:59:00.439Z,63.92
2018-09-28T15:01:28.681Z,65.19
2018-09-28T15:03:56.658Z,64.87
2018-09-28T15:06:24.849Z,66.30
2018-09-28T15:08:52.894Z,65.32
2018-09-28T15:11:21.157Z,64.84
2018-09-28T15:13:49.250Z,66.02
2018-09-28T15:16:17.395Z,64.93
2018-09-28T15:18:45.493Z,65.23
2018-09-28T15:21:13.605Z,67.05
2018-09-28T15:23:42.097Z,66.33
2018-09-28T15:26:10.217Z,67.63
2018-09-28T15:28:38.332Z,67.60
2018-09-28T15:31:06.749Z,66.27
2018-09-28T15:33:34.842Z,67.14
2018-09-28T15:36:02.941Z,66.08
2018-09-28T15:38:31.100Z,65.64
2018-09-28T15:40:59.228Z,64.79
2018-09-28T15:43:27.331Z,64.07
2018-09-28T15:45:55.437Z,64.43
2018-09-28T15:48:23.563Z,65.15
2018-09-28T15:50:51.664Z,63.57
2018-09-28T15:53:19.760Z,64.24
2018-09-28T15:55:47.890Z,62.75
2018-09-28T15:58:16.086Z,62.61
2018-09-28T16:00:44.202Z,61.39
2018-09-28T16:03:12.312Z,61.36
2018-09-28T16:05:40.450Z,59.49
2018-09-28T16:08:08.561Z,58.47
2018-09-28T16:10:36.672Z,59.80
2018-09-28T16:15:39.240Z,60.05
2018-09-28T16:18:07.320Z,59.54
2018-09-28T16:20:35.436Z,60.71
2018-09-28T16:23:03.552Z,59.29
2018-09-28T16:25:31.678Z,60.17
2018-09-28T16:27:59.786Z,60.45
2018-09-28T16:30:27.884Z,61.27
2018-09-28T16:32:55.985Z,62.42
2018-09-28T16:35:24.093Z,61.79
2018-09-28T16:37:52.200Z,60.94
2018-09-28T16:40:20.292Z,60.71
2018-09-28T16:42:48.408Z,61.22
2018-09-28T16:45:16.511Z,61.77
2018-09-28T16:47:44.594Z,62.10
2018-09-28T16:50:12.671Z,61.12
2018-09-28T16:52:40.776Z,62.55
2018-09-28T16:55:08.861Z,61.04
2018-09-28T16:57:36.931Z,61.73
2018-09-28T17:00:05.111Z,63.00
2018-09-28T17:02:33.188Z,62.89
2018-09-28T17:05:01.269Z,64.97
2018-09-28T17:07:29.403Z,63.38
2018-09-28T17:09:57.516Z,64.60
2018-09-28T17:12:25.570Z,64.30
2018-09-28T17:14:53.676Z,64.01
2018-09-28T17:17:21.789Z,64.96
2018-09-28T17:19:49.874Z,64.50
2018-09-28T17:22:17.975Z,66.73
2018-09-28T17:24:46.135Z,65.93
2018-09-28T17:27:14.232Z,65.87
2018-09-28T17:29:42.309Z,66.50
2018-09-28T17:32:11.340Z,66.92
2018-09-28T17:34:39.471Z,67.96
2018-09-28T17:37:07.564Z,67.73
2018-09-28T17:39:35.648Z,68.03
2018-09-28T17:42:03.741Z,68.61
2018-09-28T17:44:31.808Z,69.36
2018-09-28T17:46:59.877Z,70.56
2018-09-28T17:49:27.969Z,70.16
2018-09-28T17:51:56.069Z,70.77
2018-09-28T17:54:24.152Z,71.58
2018-09-28T17:56:52.253Z,70.65
2018-09-28T17:59:20.356Z,71.29
2018-09-28T18:01:48.468Z,71.15
2018-09-28T18:04:16.580Z,72.67
2018-09-28T18:06:44.661Z,73.15
2018-09-28T18:09:13.296Z,72.89
2018-09-28T18:11:41.421Z,72.41
2018-09-28T18:14:09.677Z,74.04
2018-09-28T18:16:37.657Z,73.98
2018-09-28T18:19:05.832Z,73.87
2018-09-28T18:21:33.904Z,75.13
2018-09-28T18:24:02.021Z,74.30
2018-09-28T18:26:30.141Z,74.37
2018-09-28T18:28:58.265Z,75.39
2018-09-28T18:31:26.476Z,74.66
2018-09-28T18:33:54.564Z,75.16
2018-09-28T18:36:22.669Z,75.46
2018-09-28T18:38:50.757Z,75.58
2018-09-28T18:41:18.876Z,75.39
2018-09-28T18:43:46.969Z,76.25
2018-09-28T18:46:15.533Z,76.77
2018-09-28T18:48:43.637Z,76.15
2018-09-28T18:51:11.722Z,77.10
2018-09-28T18:53:40.367Z,77.06
2018-09-28T18:56:08.464Z,77.42
2018-09-28T18:58:36.575Z,77.38
2018-09-28T19:01:04.661Z,78.54
2018-09-28T19:03:32.753Z,77.68
2018-09-28T19:06:00.948Z,78.18
2018-09-28T19:08:28.974Z,78.64
2018-09-28T19:10:57.089Z,78.58
2018-09-28T19:13:25.164Z,78.52
2018-09-28T19:15:53.270Z,79.43
2018-09-28T19:18:21.357Z,79.19
2018-09-28T19:20:49.446Z,79.31
2018-09-28T19:23:17.586Z,80.02
2018-09-28T19:25:45.684Z,79.88
2018-09-28T19:28:13.740Z,80.24
2018-09-28T19:30:42.408Z,80.08
2018-09-28T19:33:10.493Z,80.26
2018-09-28T19:35:38.590Z,80.16
2018-09-28T19:38:06.676Z,81.36
2018-09-28T19:40:34.872Z,81.82
2018-09-28T19:43:03.033Z,81.79
2018-09-28T19:45:31.131Z,82.61
2018-09-28T19:47:59.206Z,82.20
2018-09-28T19:50:27.292Z,82.14
2018-09-28T19:52:55.392Z,82.57
2018-09-28T19:55:23.497Z,82.33
2018-09-28T19:57:51.625Z,82.82
2018-09-28T20:00:19.712Z,83.13
2018-09-28T20:02:47.805Z,83.42
2018-09-28T20:05:15.917Z,83.63
2018-09-28T20:07:44.008Z,83.93
2018-09-28T20:10:12.120Z,84.22
2018-09-28T20:12:40.197Z,84.19
2018-09-28T20:15:08.356Z,84.41
2018-09-28T20:17:36.445Z,84.52
2018-09-28T20:20:04.524Z,84.47
2018-09-28T20:22:32.627Z,84.71
2018-09-28T20:25:00.757Z,84.83
2018-09-28T20:27:28.832Z,84.71
2018-09-28T20:29:56.908Z,85.01
2018-09-28T20:32:25.065Z,84.82
2018-09-28T20:34:53.210Z,85.44
2018-09-28T20:37:21.280Z,85.11
2018-09-28T20:39:49.380Z,85.35
2018-09-28T20:42:17.477Z,85.19
2018-09-28T20:44:45.641Z,85.11
2018-09-28T20:47:14.069Z,85.33
2018-09-28T20:49:42.343Z,85.41
2018-09-28T20:52:10.414Z,85.34
2018-09-28T20:54:38.523Z,85.21
2018-09-28T20:57:06.604Z,85.83
2018-09-28T20:59:34.696Z,86.51
2018-09-28T21:02:02.800Z,86.64
2018-09-28T21:04:30.877Z,86.71
2018-09-28T21:06:58.999Z,86.68
2018-09-28T21:09:27.087Z,86.90
2018-09-28T21:11:55.181Z,86.98
2018-09-28T21:14:23.261Z,86.46
2018-09-28T21:16:51.365Z,87.24
2018-09-28T21:19:19.424Z,87.16
2018-09-28T21:21:47.529Z,86.55
2018-09-28T21:24:15.621Z,86.78
2018-09-28T21:26:43.692Z,87.05
2018-09-28T21:29:11.760Z,87.10
2018-09-28T21:31:39.853Z,87.47
2018-09-28T21:34:07.968Z,87.92
2018-09-28T21:36:36.057Z,87.60
2018-09-28T21:39:05.712Z,87.33
2018-09-28T21:41:33.792Z,87.53
2018-09-28T21:44:01.908Z,87.48
2018-09-28T21:46:29.995Z,87.49
2018-09-28T21:48:58.081Z,87.87
2018-09-28T21:51:26.152Z,87.34
2018-09-28T21:53:54.260Z,87.86
2018-09-28T21:56:22.344Z,87.08
2018-09-28T21:58:50.420Z,87.31
2018-09-28T22:01:19.649Z,87.57
2018-09-28T22:03:49.159Z,87.24
2018-09-28T22:06:17.273Z,87.52
2018-09-28T22:08:45.621Z,87.87
2018-09-28T22:11:14.004Z,88.69
2018-09-28T22:13:42.311Z,89.22
2018-09-28T22:16:10.406Z,89.30
2018-09-28T22:18:38.513Z,89.27
2018-09-28T22:21:06.647Z,89.06
2018-09-28T22:23:34.737Z,89.09
2018-09-28T22:26:02.819Z,88.54
2018-09-28T22:28:30.888Z,88.72
2018-09-28T22:30:58.979Z,88.76
2018-09-28T22:33:27.180Z,88.68
2018-09-28T22:35:55.288Z,89.10
2018-09-28T22:38:23.400Z,89.80
2018-09-28T22:40:51.532Z,90.12
2018-09-28T22:43:19.640Z,90.26
2018-09-28T22:45:47.717Z,90.09
2018-09-28T22:48:15.776Z,90.00
2018-09-28T22:50:43.859Z,89.79
2018-09-28T22:53:11.962Z,90.30
2018-09-28T22:55:40.076Z,90.43
2018-09-28T22:58:08.164Z,90.12
2018-09-28T23:00:36.261Z,89.93
2018-09-28T23:03:04.354Z,90.65
2018-09-28T23:05:32.446Z,89.72
2018-09-28T23:08:00.564Z,89.68
2018-09-28T23:10:28.713Z,89.59
2018-09-28T23:12:56.769Z,89.36
2018-09-28T23:15:24.847Z,90.09
2018-09-28T23:17:52.945Z,90.74
2018-09-28T23:20:21.139Z,91.17
2018-09-28T23:22:49.220Z,91.45
2018-09-28T23:25:17.315Z,92.10
2018-09-28T23:27:45.409Z,92.14
2018-09-28T23:30:13.500Z,92.42
2018-09-28T23:32:41.621Z,92.61
2018-09-28T23:35:09.720Z,92.80
2018-09-28T23:37:37.832Z,93.01
2018-09-28T23:40:06.113Z,93.30
2018-09-28T23:42:34.216Z,93.19
2018-09-28T23:45:02.328Z,93.23
2018-09-28T23:47:30.420Z,93.86
2018-09-28T23:49:58.517Z,94.71
2018-09-28T23:52:27.432Z,94.80
2018-09-28T23:54:55.537Z,94.97
2018-09-28T23:57:23.621Z,95.09
2018-09-28T23:59:51.696Z,95.03
